createdAt,value
2018-06-18T00:02:11.355Z,44.00
2018-06-18T00:04:45.012Z,44.00
2018-06-18T00:07:18.161Z,41.00
2018-06-18T00:09:51.509Z,45.60
2018-06-18T00:12:23.246Z,46.60
2018-06-18T00:14:56.475Z,43.60
2018-06-18T00:17:29.412Z,43.20
2018-06-18T00:20:02.586Z,44.00
2018-06-18T00:22:35.331Z,46.20
2018-06-18T00:25:08.124Z,45.40
2018-06-18T00:27:42.024Z,42.80
2018-06-18T00:30:15.259Z,45.60
2018-06-18T00:32:47.910Z,41.20
2018-06-18T00:35:21.336Z,43.80
2018-06-18T00:37:54.268Z,44.60
2018-06-18T00:40:26.533Z,35.00
2018-06-18T00:42:59.282Z,46.80
2018-06-18T00:45:32.687Z,50.20
2018-06-18T00:48:05.020Z,56.60
2018-06-18T00:50:37.992Z,53.20
2018-06-18T00:53:11.458Z,59.00
2018-06-18T00:55:53.418Z,58.40
2018-06-18T00:58:25.651Z,61.80
2018-06-18T01:00:57.830Z,58.60
2018-06-18T01:03:30.654Z,60.20
2018-06-18T01:06:04.218Z,60.00
2018-06-18T01:08:37.307Z,54.60
2018-06-18T01:11:10.584Z,59.80
2018-06-18T01:13:43.942Z,52.40
2018-06-18T01:16:16.564Z,58.00
2018-06-18T01:18:49.308Z,56.20
2018-06-18T01:21:22.760Z,59.60
2018-06-18T01:24:00.397Z,51.00
2018-06-18T01:26:33.566Z,57.80
2018-06-18T01:29:05.922Z,56.40
2018-06-18T01:31:38.875Z,62.20
2018-06-18T01:34:28.528Z,61.80
2018-06-18T01:37:01.720Z,65.20
2018-06-18T01:39:34.552Z,53.80
2018-06-18T01:42:07.678Z,57.40
2018-06-18T01:44:40.132Z,60.60
2018-06-18T01:47:13.399Z,61.40
2018-06-18T01:49:46.594Z,65.20
2018-06-18T01:52:19.924Z,66.80
2018-06-18T01:54:52.419Z,61.20
2018-06-18T01:57:24.525Z,75.60
2018-06-18T01:59:56.562Z,73.60
2018-06-18T02:02:30.292Z,64.40
2018-06-18T02:05:02.856Z,50.00
2018-06-18T02:07:36.841Z,58.20
2018-06-18T02:10:09.071Z,59.60
2018-06-18T02:12:43.144Z,69.00
2018-06-18T02:15:16.206Z,59.20
2018-06-18T02:17:49.442Z,68.60
2018-06-18T02:20:22.185Z,67.80
2018-06-18T02:22:55.417Z,66.00
2018-06-18T02:25:28.629Z,68.80
2018-06-18T02:28:06.159Z,68.60
2018-06-18T02:30:43.376Z,70.40
2018-06-18T02:33:20.406Z,64.60
2018-06-18T02:35:57.004Z,75.40
2018-06-18T02:38:34.401Z,72.60
2018-06-18T02:41:07.680Z,65.60
2018-06-18T02:43:41.199Z,70.80
2018-06-18T02:46:14.536Z,69.40
2018-06-18T02:48:48.333Z,68.20
2018-06-18T02:51:21.011Z,68.00
2018-06-18T02:53:54.533Z,67.40
2018-06-18T02:56:40.614Z,65.20
2018-06-18T02:59:12.875Z,69.60
2018-06-18T03:01:45.606Z,66.40
2018-06-18T03:04:19.332Z,60.80
2018-06-18T03:06:52.514Z,65.80
2018-06-18T03:09:25.859Z,63.60
2018-06-18T03:11:58.558Z,63.20
2018-06-18T03:14:31.289Z,62.20
2018-06-18T03:17:04.457Z,61.00
2018-06-18T03:19:41.766Z,63.20
2018-06-18T03:22:18.817Z,57.80
2018-06-18T03:24:55.940Z,54.40
2018-06-18T03:27:32.913Z,57.20
2018-06-18T03:30:05.691Z,53.00
2018-06-18T03:32:38.886Z,52.00
2018-06-18T03:35:12.367Z,54.60
2018-06-18T03:37:45.615Z,50.00
2018-06-18T03:40:18.226Z,51.40
2018-06-18T03:42:51.262Z,48.80
2018-06-18T03:45:29.167Z,53.20
2018-06-18T03:48:08.326Z,53.40
2018-06-18T03:50:42.028Z,48.00
2018-06-18T03:53:14.834Z,48.00
2018-06-18T03:55:54.828Z,53.00
2018-06-18T03:58:27.856Z,51.00
2018-06-18T04:02:15.526Z,52.20
2018-06-18T04:04:57.569Z,53.60
2018-06-18T04:08:06.100Z,50.20
2018-06-18T04:10:43.533Z,45.20
2018-06-18T04:13:18.722Z,50.80
2018-06-18T04:15:51.740Z,48.80
2018-06-18T04:18:25.504Z,47.80
2018-06-18T04:20:58.632Z,48.60
2018-06-18T04:23:31.636Z,47.40
2018-06-18T04:26:05.183Z,53.40
2018-06-18T04:28:38.736Z,48.00
2018-06-18T04:31:11.921Z,44.80
2018-06-18T04:33:51.265Z,49.00
2018-06-18T04:36:24.212Z,43.40
2018-06-18T04:38:56.694Z,45.80
2018-06-18T04:41:29.230Z,43.40
2018-06-18T04:44:06.677Z,39.80
2018-06-18T04:46:44.513Z,37.60
2018-06-18T04:49:22.502Z,42.60
2018-06-18T04:51:55.949Z,36.80
2018-06-18T04:54:28.950Z,45.40
2018-06-18T04:57:02.298Z,42.00
2018-06-18T04:59:36.545Z,46.20
2018-06-18T05:02:09.025Z,38.20
2018-06-18T05:04:42.543Z,33.60
2018-06-18T05:07:15.687Z,43.80
2018-06-18T05:10:05.682Z,42.60
2018-06-18T05:12:38.369Z,42.80
2018-06-18T05:15:13.430Z,40.00
2018-06-18T05:17:46.276Z,38.40
2018-06-18T05:20:19.569Z,41.00
2018-06-18T05:22:52.762Z,33.80
2018-06-18T05:25:25.171Z,30.20
2018-06-18T05:27:57.301Z,32.40
2018-06-18T05:30:32.446Z,39.00
2018-06-18T05:33:06.585Z,30.20
2018-06-18T05:35:44.773Z,28.80
2018-06-18T05:38:22.195Z,29.20
2018-06-18T05:40:55.144Z,30.00
2018-06-18T05:43:27.733Z,31.40
2018-06-18T05:46:00.455Z,39.40
2018-06-18T05:48:33.144Z,35.20
2018-06-18T05:51:05.965Z,36.00
2018-06-18T05:53:39.108Z,35.80
2018-06-18T05:56:12.670Z,28.20
2018-06-18T05:58:45.353Z,27.00
2018-06-18T06:01:18.207Z,34.20
2018-06-18T06:03:50.748Z,29.00
2018-06-18T06:06:24.047Z,29.40
2018-06-18T06:08:56.392Z,37.80
2018-06-18T06:11:29.204Z,31.60
2018-06-18T06:14:01.684Z,32.40
2018-06-18T06:16:34.410Z,31.80
2018-06-18T06:19:07.922Z,34.20
2018-06-18T06:21:41.773Z,35.40
2018-06-18T06:24:15.049Z,28.80
2018-06-18T06:26:47.404Z,39.60
2018-06-18T06:29:20.693Z,35.00
2018-06-18T06:31:53.885Z,31.20
2018-06-18T06:34:26.643Z,37.80
2018-06-18T06:36:59.561Z,31.20
2018-06-18T06:39:32.479Z,31.00
2018-06-18T06:42:09.095Z,35.40
2018-06-18T06:44:42.017Z,38.20
2018-06-18T06:47:14.870Z,32.40
2018-06-18T06:49:48.043Z,38.00
2018-06-18T06:52:20.900Z,35.60
2018-06-18T06:54:53.165Z,24.60
2018-06-18T06:57:26.056Z,34.40
2018-06-18T06:59:58.061Z,26.20
2018-06-18T07:02:31.127Z,31.00
2018-06-18T07:05:04.427Z,32.00
2018-06-18T07:07:37.319Z,28.40
2018-06-18T07:10:10.617Z,29.40
2018-06-18T07:12:43.828Z,30.00
2018-06-18T07:15:16.820Z,31.60
2018-06-18T07:17:49.024Z,31.80
2018-06-18T07:20:22.025Z,35.20
2018-06-18T07:22:55.410Z,32.20
2018-06-18T07:25:28.789Z,32.80
2018-06-18T07:28:04.437Z,36.20
2018-06-18T07:30:37.971Z,31.00
2018-06-18T07:33:10.711Z,28.00
2018-06-18T07:35:43.661Z,34.60
2018-06-18T07:38:16.635Z,30.20
2018-06-18T07:40:49.987Z,33.20
2018-06-18T07:43:22.869Z,30.20
2018-06-18T07:45:55.473Z,33.20
2018-06-18T07:48:28.558Z,29.60
2018-06-18T07:51:01.039Z,32.60
2018-06-18T07:53:33.739Z,31.40
2018-06-18T07:56:09.330Z,30.80
2018-06-18T07:58:42.547Z,32.80
2018-06-18T08:01:14.999Z,30.00
2018-06-18T08:03:48.026Z,43.80
2018-06-18T08:06:20.739Z,36.20
2018-06-18T08:08:53.771Z,28.60
2018-06-18T08:11:27.139Z,32.40
2018-06-18T08:13:59.733Z,36.40
2018-06-18T08:16:32.056Z,43.40
2018-06-18T08:19:05.945Z,47.00
2018-06-18T08:21:39.410Z,41.00
2018-06-18T08:24:12.422Z,33.00
2018-06-18T08:26:45.453Z,37.00
2018-06-18T08:29:18.626Z,35.40
2018-06-18T08:31:52.290Z,31.20
2018-06-18T08:34:25.688Z,35.60
2018-06-18T08:36:59.060Z,39.40
2018-06-18T08:39:31.643Z,30.80
2018-06-18T08:42:04.473Z,23.40
2018-06-18T08:44:36.750Z,25.00
2018-06-18T08:47:09.506Z,24.00
2018-06-18T08:49:46.670Z,25.80
2018-06-18T08:52:23.288Z,23.00
2018-06-18T08:55:01.315Z,19.80
2018-06-18T08:57:39.054Z,21.00
2018-06-18T09:00:16.595Z,16.60
2018-06-18T09:02:54.370Z,17.60
2018-06-18T09:05:31.540Z,18.20
2018-06-18T09:08:07.810Z,19.80
2018-06-18T09:10:41.017Z,19.20
2018-06-18T09:13:14.314Z,17.00
2018-06-18T09:15:47.252Z,21.60
2018-06-18T09:18:20.643Z,19.40
2018-06-18T09:20:53.335Z,18.80
2018-06-18T09:23:25.873Z,20.80
2018-06-18T09:25:59.844Z,20.40
2018-06-18T09:28:33.226Z,18.80
2018-06-18T09:31:06.742Z,18.60
2018-06-18T09:33:42.594Z,18.80
2018-06-18T09:36:15.742Z,17.40
2018-06-18T09:38:48.812Z,24.40
2018-06-18T09:41:22.703Z,22.40
2018-06-18T09:43:55.954Z,20.80
2018-06-18T09:46:29.452Z,15.20
2018-06-18T09:49:06.756Z,16.40
2018-06-18T09:51:44.454Z,16.00
2018-06-18T09:54:21.584Z,13.80
2018-06-18T09:56:59.672Z,15.60
2018-06-18T09:59:43.010Z,14.60
2018-06-18T10:02:16.787Z,14.80
2018-06-18T10:04:48.953Z,15.20
2018-06-18T10:07:21.589Z,15.40
2018-06-18T10:09:54.371Z,16.00
2018-06-18T10:12:27.507Z,18.60
2018-06-18T10:15:00.792Z,17.00
2018-06-18T10:18:58.317Z,16.60
2018-06-18T10:21:32.037Z,15.00
2018-06-18T10:24:04.359Z,19.00
2018-06-18T10:26:38.325Z,21.20
2018-06-18T10:29:12.692Z,18.00
2018-06-18T10:31:46.367Z,21.80
2018-06-18T10:34:24.707Z,20.80
2018-06-18T10:37:03.666Z,25.40
2018-06-18T10:39:42.244Z,26.20
2018-06-18T10:42:20.267Z,24.60
2018-06-18T10:44:54.057Z,24.40
2018-06-18T10:47:27.944Z,20.80
2018-06-18T10:50:01.713Z,19.80
2018-06-18T10:52:34.713Z,22.40
2018-06-18T10:55:07.703Z,17.80
2018-06-18T10:57:39.876Z,19.60
2018-06-18T11:00:15.066Z,21.40
2018-06-18T11:02:48.256Z,17.80
2018-06-18T11:05:21.479Z,17.60
2018-06-18T11:07:54.557Z,20.80
2018-06-18T11:10:27.818Z,20.80
2018-06-18T11:12:59.838Z,25.00
2018-06-18T11:15:31.874Z,23.20
2018-06-18T11:18:09.357Z,23.60
2018-06-18T11:20:47.765Z,30.60
2018-06-18T11:23:24.522Z,22.40
2018-06-18T11:26:01.752Z,26.40
2018-06-18T11:28:35.174Z,27.20
2018-06-18T11:31:07.322Z,25.20
2018-06-18T11:33:40.560Z,25.40
2018-06-18T11:36:14.324Z,26.60
2018-06-18T11:38:46.635Z,24.00
2018-06-18T11:41:18.996Z,22.00
2018-06-18T11:43:52.389Z,24.40
2018-06-18T11:46:24.936Z,25.60
2018-06-18T11:48:57.819Z,23.40
2018-06-18T11:58:35.632Z,26.00
2018-06-18T12:01:12.989Z,20.20
2018-06-18T12:03:50.657Z,17.80
2018-06-18T12:06:27.531Z,19.80
2018-06-18T12:09:05.283Z,19.20
2018-06-18T12:11:39.975Z,20.60
2018-06-18T12:14:13.103Z,19.00
2018-06-18T12:16:45.956Z,19.80
2018-06-18T12:19:18.120Z,18.20
2018-06-18T12:21:49.741Z,21.80
2018-06-18T12:24:23.390Z,20.20
2018-06-18T12:26:57.318Z,19.20
2018-06-18T12:29:30.863Z,19.80
2018-06-18T12:32:03.007Z,25.00
2018-06-18T12:34:35.912Z,21.80
2018-06-18T12:37:08.815Z,25.00
2018-06-18T12:39:41.848Z,20.20
2018-06-18T12:42:14.407Z,25.20
2018-06-18T12:44:51.892Z,21.40
2018-06-18T12:47:29.337Z,19.60
2018-06-18T12:50:06.397Z,24.40
2018-06-18T12:52:43.310Z,23.80
2018-06-18T12:55:21.142Z,15.20
2018-06-18T12:57:53.763Z,24.00
2018-06-18T13:00:26.331Z,21.20
2018-06-18T13:03:06.093Z,21.80
2018-06-18T13:05:38.808Z,19.60
2018-06-18T13:08:11.579Z,20.00
2018-06-18T13:10:44.208Z,21.20
2018-06-18T13:13:16.567Z,20.40
2018-06-18T13:15:49.438Z,18.00
2018-06-18T13:18:21.776Z,20.80
2018-06-18T13:20:54.354Z,18.60
2018-06-18T13:23:26.662Z,20.00
2018-06-18T13:25:59.707Z,15.80
2018-06-18T13:28:32.899Z,18.60
2018-06-18T13:31:06.054Z,21.00
2018-06-18T13:33:38.873Z,21.40
2018-06-18T13:36:11.706Z,16.40
2018-06-18T13:38:49.181Z,20.80
2018-06-18T13:41:26.698Z,15.80
2018-06-18T13:44:03.570Z,17.00
2018-06-18T13:46:40.981Z,17.40
2018-06-18T13:49:13.318Z,18.60
2018-06-18T13:51:46.490Z,27.60
2018-06-18T13:54:19.793Z,19.80
2018-06-18T13:56:52.860Z,21.40
2018-06-18T13:59:25.744Z,19.60
2018-06-18T14:01:58.765Z,17.40
2018-06-18T14:04:32.020Z,21.00
2018-06-18T14:07:05.454Z,22.00
2018-06-18T14:09:37.835Z,27.20
2018-06-18T14:12:11.118Z,25.00
2018-06-18T14:14:44.292Z,27.60
2018-06-18T14:17:17.685Z,30.00
2018-06-18T14:19:55.208Z,28.80
2018-06-18T14:22:28.256Z,30.20
2018-06-18T14:25:00.811Z,28.80
2018-06-18T14:27:34.089Z,31.20
2018-06-18T14:30:12.029Z,29.00
2018-06-18T14:32:49.418Z,33.00
2018-06-18T14:35:26.248Z,29.40
2018-06-18T14:38:03.488Z,29.00
2018-06-18T14:40:36.511Z,25.80
2018-06-18T14:43:08.882Z,31.00
2018-06-18T14:45:41.605Z,29.60
2018-06-18T14:48:15.548Z,28.60
2018-06-18T14:50:49.310Z,30.00
2018-06-18T14:53:21.700Z,26.40
2018-06-18T14:56:00.888Z,27.20
2018-06-18T14:58:33.485Z,26.60
2018-06-18T15:01:06.187Z,25.40
2018-06-18T15:03:39.680Z,29.60
2018-06-18T15:06:13.219Z,27.00
2018-06-18T15:08:46.145Z,29.20
2018-06-18T15:11:18.562Z,26.80
2018-06-18T15:13:52.305Z,27.60
2018-06-18T15:16:31.303Z,28.60
2018-06-18T15:19:04.453Z,27.60
2018-06-18T15:21:39.641Z,28.80
2018-06-18T15:24:16.741Z,38.40
2018-06-18T15:26:49.794Z,32.00
2018-06-18T15:29:23.158Z,35.80
2018-06-18T15:31:56.794Z,36.80
2018-06-18T15:34:29.652Z,34.40
2018-06-18T15:37:02.747Z,39.20
2018-06-18T15:39:36.314Z,41.40
2018-06-18T15:42:09.000Z,43.20
2018-06-18T15:44:42.360Z,37.40
2018-06-18T15:47:14.969Z,37.00
2018-06-18T15:49:47.481Z,34.00
2018-06-18T15:52:20.571Z,37.80
2018-06-18T15:54:53.252Z,41.60
2018-06-18T15:57:26.761Z,35.60
2018-06-18T15:59:59.353Z,39.20
2018-06-18T16:02:31.709Z,39.80
2018-06-18T16:05:04.976Z,40.40
2018-06-18T16:07:38.754Z,39.60
2018-06-18T16:10:11.310Z,41.80
2018-06-18T16:12:44.175Z,45.20
2018-06-18T16:15:17.585Z,44.40
2018-06-18T16:17:50.207Z,37.20
2018-06-18T16:20:22.947Z,42.20
2018-06-18T16:22:55.898Z,43.20
2018-06-18T16:25:29.218Z,41.60
2018-06-18T16:28:02.178Z,39.00
2018-06-18T16:30:36.378Z,38.40
2018-06-18T16:33:08.292Z,42.40
2018-06-18T16:35:41.247Z,35.80
2018-06-18T16:38:13.994Z,36.40
2018-06-18T16:40:47.644Z,35.00
2018-06-18T16:43:20.613Z,38.20
2018-06-18T16:45:53.062Z,35.80
2018-06-18T16:48:26.075Z,30.40
2018-06-18T16:50:59.112Z,28.40
2018-06-18T16:53:31.908Z,30.60
2018-06-18T16:56:04.136Z,27.60
2018-06-18T16:58:36.638Z,32.00
2018-06-18T17:01:09.071Z,32.40
2018-06-18T17:03:42.056Z,27.40
2018-06-18T17:06:15.047Z,33.20
2018-06-18T17:08:48.238Z,32.20
2018-06-18T17:11:21.962Z,30.20
2018-06-18T17:13:55.109Z,24.60
2018-06-18T17:16:27.700Z,24.00
2018-06-18T17:19:00.615Z,24.80
2018-06-18T17:21:33.349Z,24.20
2018-06-18T17:24:06.099Z,25.00
2018-06-18T17:26:39.316Z,24.60
2018-06-18T17:29:12.621Z,25.40
2018-06-18T17:31:45.284Z,22.80
2018-06-18T17:34:18.189Z,25.80
2018-06-18T17:36:50.679Z,20.40
2018-06-18T17:39:23.222Z,22.20
2018-06-18T17:41:56.221Z,25.20
2018-06-18T17:44:29.536Z,21.60
2018-06-18T17:47:02.334Z,23.60
2018-06-18T17:49:35.553Z,24.20
2018-06-18T17:52:08.643Z,21.60
2018-06-18T17:54:41.653Z,24.20
2018-06-18T17:57:14.912Z,20.40
2018-06-18T17:59:47.285Z,24.40
2018-06-18T18:02:19.713Z,19.80
2018-06-18T18:04:55.858Z,18.00
2018-06-18T18:07:29.719Z,21.40
2018-06-18T18:10:02.520Z,21.00
2018-06-18T18:12:35.264Z,28.40
2018-06-18T18:15:07.992Z,18.20
2018-06-18T18:17:40.066Z,19.00
2018-06-18T18:20:13.320Z,26.20
2018-06-18T18:22:45.662Z,20.00
2018-06-18T18:25:18.625Z,19.00
2018-06-18T18:27:51.713Z,19.20
2018-06-18T18:30:24.852Z,21.60
2018-06-18T18:32:57.631Z,20.40
2018-06-18T18:35:30.689Z,21.60
2018-06-18T18:38:03.576Z,25.00
2018-06-18T18:40:37.260Z,23.20
2018-06-18T18:43:10.289Z,22.60
2018-06-18T18:45:43.485Z,19.00
2018-06-18T18:48:15.989Z,22.00
2018-06-18T18:50:48.521Z,23.20
2018-06-18T18:53:20.879Z,21.80
2018-06-18T18:56:05.347Z,19.20
2018-06-18T18:59:43.239Z,22.40
2018-06-18T19:02:16.503Z,22.40
2018-06-18T19:04:57.594Z,20.20
2018-06-18T19:07:41.731Z,22.00
2018-06-18T19:10:31.359Z,23.20
2018-06-18T19:13:05.639Z,20.20
2018-06-18T19:15:38.790Z,22.60
2018-06-18T19:18:11.876Z,23.80
2018-06-18T19:20:46.978Z,25.00
2018-06-18T19:23:19.951Z,21.00
2018-06-18T19:25:52.583Z,18.60
2018-06-18T19:28:24.743Z,19.80
2018-06-18T19:31:02.089Z,22.60
2018-06-18T19:33:42.547Z,20.60
2018-06-18T19:36:15.580Z,19.80
2018-06-18T19:38:47.786Z,20.40
2018-06-18T19:41:21.028Z,24.20
2018-06-18T19:43:54.131Z,21.20
2018-06-18T19:46:34.704Z,21.40
2018-06-18T19:49:13.455Z,25.00
2018-06-18T19:51:46.110Z,18.00
2018-06-18T20:01:24.009Z,24.40
2018-06-18T20:03:56.449Z,20.60
2018-06-18T20:06:29.238Z,17.60
2018-06-18T20:09:02.501Z,19.60
2018-06-18T20:11:34.621Z,20.80
2018-06-18T20:14:06.636Z,19.00
2018-06-18T20:16:39.818Z,19.60
2018-06-18T20:19:12.940Z,17.00
2018-06-18T20:21:45.878Z,21.40
2018-06-18T20:31:18.433Z,19.80
2018-06-18T20:33:54.778Z,21.60
2018-06-18T20:36:28.516Z,21.80
2018-06-18T20:39:00.872Z,21.60
2018-06-18T20:41:33.228Z,20.60
2018-06-18T20:44:13.686Z,18.80
2018-06-18T20:46:46.469Z,18.20
2018-06-18T20:49:18.674Z,22.00
2018-06-18T20:51:52.045Z,23.00
2018-06-18T20:54:24.740Z,19.80
2018-06-18T20:56:57.947Z,24.00
2018-06-18T20:59:30.725Z,22.20
2018-06-18T21:02:02.974Z,23.60
2018-06-18T21:04:35.328Z,17.40
2018-06-18T21:07:08.130Z,21.60
2018-06-18T21:09:40.226Z,22.80
2018-06-18T21:12:13.470Z,22.60
2018-06-18T21:14:45.998Z,21.40
2018-06-18T21:17:18.548Z,22.20
2018-06-18T21:19:50.783Z,19.80
2018-06-18T21:22:23.581Z,24.40
2018-06-18T21:24:55.541Z,20.60
2018-06-18T21:27:28.493Z,23.00
2018-06-18T21:30:00.902Z,20.40
2018-06-18T21:32:32.933Z,23.00
2018-06-18T21:35:06.396Z,26.20
2018-06-18T21:37:38.713Z,22.00
2018-06-18T21:40:10.947Z,22.40
2018-06-18T21:42:43.408Z,26.20
2018-06-18T21:45:20.581Z,21.00
2018-06-18T21:47:53.954Z,20.80
2018-06-18T21:50:26.355Z,22.40
2018-06-18T21:52:59.707Z,25.00
2018-06-18T21:55:31.870Z,17.80
2018-06-18T21:58:04.360Z,24.40
2018-06-18T22:00:40.136Z,23.60
2018-06-18T22:03:12.962Z,22.00
2018-06-18T22:05:45.312Z,20.80
2018-06-18T22:08:19.481Z,25.80
2018-06-18T22:10:52.151Z,22.60
2018-06-18T22:13:24.901Z,26.00
2018-06-18T22:15:57.601Z,23.40
2018-06-18T22:18:30.459Z,22.20
2018-06-18T22:21:03.415Z,28.00
2018-06-18T22:23:36.568Z,23.60
2018-06-18T22:26:09.733Z,21.60
2018-06-18T22:28:43.974Z,24.20
2018-06-18T22:31:16.870Z,23.00
2018-06-18T22:33:49.005Z,21.80
2018-06-18T22:36:22.385Z,26.20
2018-06-18T22:38:54.836Z,20.40
2018-06-18T22:41:27.037Z,22.00
2018-06-18T22:43:59.492Z,21.00
2018-06-18T22:46:31.942Z,23.60
2018-06-18T22:49:04.619Z,22.60
2018-06-18T22:51:36.730Z,23.20
2018-06-18T22:54:09.133Z,27.00
2018-06-18T22:56:41.931Z,23.00
2018-06-18T22:59:15.297Z,24.00
2018-06-18T23:01:47.055Z,23.20
2018-06-18T23:04:20.020Z,21.60
2018-06-18T23:06:52.004Z,21.40
2018-06-18T23:09:25.189Z,26.40
2018-06-18T23:11:58.272Z,22.20
2018-06-18T23:14:30.897Z,19.40
2018-06-18T23:17:03.045Z,24.60
2018-06-18T23:19:35.866Z,25.20
2018-06-18T23:22:08.172Z,31.40
2018-06-18T23:24:40.822Z,31.40
2018-06-18T23:27:13.802Z,28.00
2018-06-18T23:29:46.628Z,29.00
2018-06-18T23:32:19.869Z,32.60
2018-06-18T23:34:52.686Z,35.00
2018-06-18T23:37:24.843Z,25.60
2018-06-18T23:39:57.086Z,24.80
2018-06-18T23:42:29.382Z,27.20
2018-06-18T23:45:01.897Z,29.40
2018-06-18T23:47:34.287Z,29.20
2018-06-18T23:50:06.881Z,28.60
2018-06-18T23:52:39.475Z,25.40
2018-06-18T23:55:12.410Z,27.20
2018-06-18T23:57:44.990Z,31.20
